Time;durP1;ratioP1;P1;durP2;ratioP2;P2;SDS_P1;SDS_P2;PMS_P1;PMS_P2;Temp;Humidity;BMP_temperature;BMP_pressure;BME280_temperature;BME280_humidity;BME280_pressure;Samples;Min_cycle;Max_cycle;Signal;HPM_P1;HPM_P2
2023/09/18 00:01:09;;;;;;;1.50;1.08;;;;;;;;;;7296880;19;142209;-77
2023/09/18 00:03:36;;;;;;;1.10;0.90;;;;;;;;;;7298611;19;140380;-77
2023/09/18 00:06:04;;;;;;;1.00;0.85;;;;;;;;;;7298562;19;140814;-77
2023/09/18 00:08:31;;;;;;;1.27;0.90;;;;;;;;;;7298237;19;140917;-77
2023/09/18 00:11:00;;;;;;;1.15;0.90;;;;;;;;;;7296294;19;142655;-77
2023/09/18 00:13:27;;;;;;;1.00;0.90;;;;;;;;;;7299111;19;140985;-77
2023/09/18 00:15:55;;;;;;;1.67;0.95;;;;;;;;;;7295924;19;140926;-77
2023/09/18 00:18:23;;;;;;;1.55;1.00;;;;;;;;;;7297515;19;141903;-77
2023/09/18 00:20:51;;;;;;;1.40;1.00;;;;;;;;;;7299356;19;142562;-77
2023/09/18 00:23:18;;;;;;;1.40;0.90;;;;;;;;;;7298202;19;141030;-78
2023/09/18 00:25:46;;;;;;;1.30;0.90;;;;;;;;;;7297707;19;141033;-78
2023/09/18 00:28:13;;;;;;;1.10;0.90;;;;;;;;;;7297786;19;141410;-77
2023/09/18 00:30:47;;;;;;;1.10;0.90;;;;;;;;;;7296192;19;141641;-76
2023/09/18 00:33:15;;;;;;;1.00;0.82;;;;;;;;;;7297199;19;140859;-77
2023/09/18 00:35:51;;;;;;;1.05;0.90;;;;;;;;;;7297601;19;142128;-76
2023/09/18 00:38:22;;;;;;;1.10;0.83;;;;;;;;;;7297311;19;140661;-77
2023/09/18 00:40:49;;;;;;;1.25;0.98;;;;;;;;;;7295149;19;144400;-76
2023/09/18 00:43:17;;;;;;;1.17;0.88;;;;;;;;;;7297465;19;142086;-76
2023/09/18 00:45:45;;;;;;;0.90;0.80;;;;;;;;;;7296799;19;140897;-76
2023/09/18 00:48:14;;;;;;;1.20;0.90;;;;;;;;;;7297698;19;141845;-76
2023/09/18 00:50:41;;;;;;;1.02;0.77;;;;;;;;;;7304266;19;142972;-76
2023/09/18 00:53:09;;;;;;;1.10;0.85;;;;;;;;;;7302883;19;141056;-76
2023/09/18 00:55:37;;;;;;;1.23;0.77;;;;;;;;;;7303901;19;141168;-76
2023/09/18 00:58:05;;;;;;;1.00;0.80;;;;;;;;;;7303860;19;141235;-76
2023/09/18 01:00:32;;;;;;;0.90;0.80;;;;;;;;;;7302598;19;141106;-76
2023/09/18 01:03:00;;;;;;;1.00;0.80;;;;;;;;;;7304251;19;141003;-77
2023/09/18 01:05:28;;;;;;;0.82;0.70;;;;;;;;;;7304052;19;142025;-77
2023/09/18 01:07:55;;;;;;;1.10;0.90;;;;;;;;;;7303582;19;141745;-77
2023/09/18 01:10:24;;;;;;;1.10;0.90;;;;;;;;;;7303864;19;143118;-77
2023/09/18 01:12:55;;;;;;;0.73;0.70;;;;;;;;;;7303721;19;140476;-77
2023/09/18 01:15:26;;;;;;;0.70;0.70;;;;;;;;;;7302988;19;140800;-76
2023/09/18 01:17:53;;;;;;;0.77;0.70;;;;;;;;;;7302966;19;140929;-76
2023/09/18 01:20:21;;;;;;;1.03;0.93;;;;;;;;;;7302908;19;142170;-76
2023/09/18 01:22:49;;;;;;;1.10;0.80;;;;;;;;;;7303006;19;140917;-76
2023/09/18 01:25:16;;;;;;;0.80;0.70;;;;;;;;;;7302570;19;140953;-77
2023/09/18 01:27:43;;;;;;;0.90;0.80;;;;;;;;;;7303462;19;141827;-76
2023/09/18 01:30:12;;;;;;;1.15;0.80;;;;;;;;;;7300790;19;142873;-75
2023/09/18 01:32:40;;;;;;;1.10;0.70;;;;;;;;;;7303716;19;142420;-77
2023/09/18 01:35:09;;;;;;;1.23;0.80;;;;;;;;;;7303001;19;141481;-76
2023/09/18 01:37:37;;;;;;;0.90;0.73;;;;;;;;;;7303023;19;141113;-76
2023/09/18 01:40:06;;;;;;;0.70;0.70;;;;;;;;;;7302517;19;142151;-77
2023/09/18 01:42:34;;;;;;;1.30;0.80;;;;;;;;;;7302403;19;140611;-76
2023/09/18 01:45:02;;;;;;;0.80;0.70;;;;;;;;;;7302017;19;140491;-76
2023/09/18 01:47:29;;;;;;;0.60;0.57;;;;;;;;;;7301910;19;141212;-76
2023/09/18 01:49:56;;;;;;;0.70;0.70;;;;;;;;;;7301913;19;141586;-77
2023/09/18 01:52:24;;;;;;;1.00;0.70;;;;;;;;;;7302871;19;140618;-78
2023/09/18 01:54:51;;;;;;;0.85;0.75;;;;;;;;;;7301180;19;140709;-77
2023/09/18 01:57:18;;;;;;;0.70;0.60;;;;;;;;;;7302479;19;141343;-77
2023/09/18 01:59:45;;;;;;;0.75;0.60;;;;;;;;;;7301063;19;143022;-78
2023/09/18 02:02:13;;;;;;;0.60;0.60;;;;;;;;;;7302610;19;140503;-77
2023/09/18 02:04:51;;;;;;;0.70;0.70;;;;;;;;;;7302723;19;140547;-78
2023/09/18 02:07:35;;;;;;;0.60;0.60;;;;;;;;;;7302995;19;140835;-77
2023/09/18 02:10:03;;;;;;;1.00;0.77;;;;;;;;;;7302254;19;141820;-77
2023/09/18 02:12:30;;;;;;;0.83;0.77;;;;;;;;;;7301798;19;141006;-77
2023/09/18 02:14:58;;;;;;;1.15;0.68;;;;;;;;;;7302162;19;140776;-78
2023/09/18 02:17:25;;;;;;;1.05;0.70;;;;;;;;;;7298708;19;141399;-78
2023/09/18 02:19:52;;;;;;;0.80;0.70;;;;;;;;;;7302235;19;142000;-77
2023/09/18 02:22:19;;;;;;;0.90;0.60;;;;;;;;;;7302515;19;140700;-77
2023/09/18 02:24:46;;;;;;;0.75;0.68;;;;;;;;;;7301840;19;140529;-77
2023/09/18 02:27:13;;;;;;;0.88;0.70;;;;;;;;;;7301851;19;141330;-77
2023/09/18 02:29:44;;;;;;;0.77;0.70;;;;;;;;;;7301919;19;142799;-78
2023/09/18 02:32:11;;;;;;;0.60;0.60;;;;;;;;;;7301279;19;140720;-77
2023/09/18 02:34:38;;;;;;;0.65;0.57;;;;;;;;;;7301636;19;140940;-78
2023/09/18 02:37:06;;;;;;;0.77;0.70;;;;;;;;;;7302356;19;140457;-77
2023/09/18 02:39:33;;;;;;;0.73;0.70;;;;;;;;;;7299655;19;142021;-78
2023/09/18 02:42:00;;;;;;;0.93;0.60;;;;;;;;;;7301947;19;140982;-78
2023/09/18 02:44:27;;;;;;;0.60;0.50;;;;;;;;;;7301488;19;140969;-78
2023/09/18 02:46:54;;;;;;;0.52;0.52;;;;;;;;;;7300440;19;141352;-77
2023/09/18 02:49:21;;;;;;;0.60;0.60;;;;;;;;;;7301197;19;142833;-77
2023/09/18 02:51:49;;;;;;;0.53;0.50;;;;;;;;;;7300117;19;140640;-76
2023/09/18 02:54:16;;;;;;;0.60;0.60;;;;;;;;;;7301095;19;140617;-75
2023/09/18 02:56:44;;;;;;;0.70;0.70;;;;;;;;;;7300114;19;140652;-75
2023/09/18 02:59:11;;;;;;;0.75;0.60;;;;;;;;;;7300422;19;142033;-75
2023/09/18 03:01:38;;;;;;;0.70;0.60;;;;;;;;;;7300155;19;140765;-75
2023/09/18 03:04:05;;;;;;;0.57;0.57;;;;;;;;;;7300272;19;140775;-76
2023/09/18 03:06:32;;;;;;;0.85;0.70;;;;;;;;;;7299936;19;141157;-75
2023/09/18 03:08:59;;;;;;;0.60;0.57;;;;;;;;;;7300682;19;142699;-75
2023/09/18 03:11:28;;;;;;;0.77;0.70;;;;;;;;;;7299951;19;142496;-75
2023/09/18 03:13:55;;;;;;;0.50;0.50;;;;;;;;;;7301078;19;140709;-76
2023/09/18 03:16:23;;;;;;;0.50;0.50;;;;;;;;;;7299716;19;141132;-77
2023/09/18 03:18:50;;;;;;;1.00;0.50;;;;;;;;;;7299717;19;142030;-77
2023/09/18 03:21:17;;;;;;;0.50;0.50;;;;;;;;;;7300197;19;140416;-77
2023/09/18 03:23:44;;;;;;;0.70;0.60;;;;;;;;;;7300407;19;140467;-77
2023/09/18 03:26:11;;;;;;;0.60;0.60;;;;;;;;;;7299489;19;141340;-77
2023/09/18 03:28:39;;;;;;;0.70;0.57;;;;;;;;;;7300161;19;141278;-77
2023/09/18 03:31:06;;;;;;;0.60;0.60;;;;;;;;;;7297889;19;140935;-77
2023/09/18 03:33:33;;;;;;;0.93;0.70;;;;;;;;;;7300170;19;140749;-77
2023/09/18 03:36:00;;;;;;;0.50;0.50;;;;;;;;;;7299410;19;141638;-77
2023/09/18 03:38:29;;;;;;;0.90;0.50;;;;;;;;;;7299216;19;140820;-76
2023/09/18 03:40:59;;;;;;;0.43;0.43;;;;;;;;;;7298333;19;140737;-76
2023/09/18 03:43:26;;;;;;;0.50;0.50;;;;;;;;;;7299424;19;140829;-76
2023/09/18 03:45:53;;;;;;;0.60;0.60;;;;;;;;;;7298929;19;141957;-77
2023/09/18 03:48:20;;;;;;;0.60;0.60;;;;;;;;;;7297608;19;142450;-77
2023/09/18 03:50:47;;;;;;;0.50;0.50;;;;;;;;;;7297414;19;141126;-76
2023/09/18 03:53:15;;;;;;;0.65;0.50;;;;;;;;;;7299336;19;140423;-77
2023/09/18 03:55:42;;;;;;;0.80;0.60;;;;;;;;;;7298340;19;141218;-78
2023/09/18 03:58:12;;;;;;;0.60;0.60;;;;;;;;;;7297320;19;141066;-78
2023/09/18 04:00:39;;;;;;;0.52;0.40;;;;;;;;;;7299018;19;140351;-77
2023/09/18 04:03:07;;;;;;;0.60;0.60;;;;;;;;;;7299212;19;141019;-77
2023/09/18 04:05:34;;;;;;;0.75;0.60;;;;;;;;;;7298741;19;140813;-77
2023/09/18 04:08:02;;;;;;;0.40;0.40;;;;;;;;;;7298998;19;142904;-77
2023/09/18 04:10:29;;;;;;;0.57;0.57;;;;;;;;;;7297410;19;140782;-79
2023/09/18 04:12:56;;;;;;;0.43;0.40;;;;;;;;;;7298702;19;140536;-77
2023/09/18 04:15:23;;;;;;;0.68;0.60;;;;;;;;;;7297208;19;141409;-77
2023/09/18 04:17:51;;;;;;;0.40;0.40;;;;;;;;;;7297677;19;142806;-76
2023/09/18 04:20:18;;;;;;;0.50;0.50;;;;;;;;;;7298928;19;140409;-77
2023/09/18 04:22:49;;;;;;;0.63;0.50;;;;;;;;;;7298536;19;140787;-77
2023/09/18 04:25:18;;;;;;;0.50;0.50;;;;;;;;;;7306265;19;141029;-77
2023/09/18 04:27:49;;;;;;;0.70;0.50;;;;;;;;;;7305504;19;142098;-77
2023/09/18 04:30:19;;;;;;;0.40;0.40;;;;;;;;;;7304638;19;140984;-77
2023/09/18 04:32:46;;;;;;;1.08;0.55;;;;;;;;;;7305170;19;140576;-77
2023/09/18 04:35:14;;;;;;;0.55;0.40;;;;;;;;;;7304657;19;142217;-76
2023/09/18 04:37:41;;;;;;;0.50;0.50;;;;;;;;;;7305034;19;141957;-77
2023/09/18 04:40:12;;;;;;;0.50;0.50;;;;;;;;;;7305694;19;140578;-77
2023/09/18 04:42:43;;;;;;;0.40;0.40;;;;;;;;;;7305420;19;140880;-78
2023/09/18 04:45:10;;;;;;;0.50;0.50;;;;;;;;;;7303292;19;141254;-77
2023/09/18 04:47:37;;;;;;;0.50;0.40;;;;;;;;;;7304408;19;142730;-77
2023/09/18 04:50:06;;;;;;;0.52;0.47;;;;;;;;;;7304508;19;141094;-77
2023/09/18 04:52:40;;;;;;;0.40;0.40;;;;;;;;;;7305131;19;141320;-77
2023/09/18 04:55:08;;;;;;;0.40;0.40;;;;;;;;;;7305108;19;142023;-77
2023/09/18 04:57:35;;;;;;;0.43;0.43;;;;;;;;;;7304464;19;142866;-78
2023/09/18 05:00:07;;;;;;;0.50;0.40;;;;;;;;;;7304941;19;140849;-77
2023/09/18 05:02:43;;;;;;;0.50;0.40;;;;;;;;;;7302241;19;140695;-77
2023/09/18 05:05:10;;;;;;;0.60;0.50;;;;;;;;;;7303953;19;141082;-78
2023/09/18 05:07:38;;;;;;;0.50;0.50;;;;;;;;;;7304122;19;143146;-79
2023/09/18 05:10:05;;;;;;;0.82;0.40;;;;;;;;;;7304534;19;140430;-78
2023/09/18 05:12:32;;;;;;;1.50;0.52;;;;;;;;;;7304584;19;140806;-76
2023/09/18 05:14:59;;;;;;;1.52;0.50;;;;;;;;;;7303173;19;140652;-77
2023/09/18 05:17:47;;;;;;;0.97;0.50;;;;;;;;;;7303836;19;140612;-78
2023/09/18 05:20:16;;;;;;;2.95;0.65;;;;;;;;;;7302746;19;140878;-79
2023/09/18 05:22:44;;;;;;;2.78;0.82;;;;;;;;;;7304209;19;140707;-76
2023/09/18 05:25:14;;;;;;;2.43;0.73;;;;;;;;;;7301882;19;141666;-77
2023/09/18 05:27:44;;;;;;;2.60;0.70;;;;;;;;;;7304016;19;141566;-79
2023/09/18 05:30:13;;;;;;;1.70;0.70;;;;;;;;;;7304690;19;140669;-79
2023/09/18 05:32:40;;;;;;;2.43;0.87;;;;;;;;;;7301026;19;140776;-80
2023/09/18 05:35:13;;;;;;;3.23;1.10;;;;;;;;;;7296741;19;141253;31
2023/09/18 05:37:41;;;;;;;3.55;0.80;;;;;;;;;;7301702;19;142356;-80
2023/09/18 05:40:12;;;;;;;2.07;0.80;;;;;;;;;;7302775;19;140794;-80
2023/09/18 05:42:43;;;;;;;2.35;0.80;;;;;;;;;;7303303;19;141011;-78
2023/09/18 05:45:11;;;;;;;3.15;0.90;;;;;;;;;;7302484;19;142341;-78
2023/09/18 05:47:38;;;;;;;3.17;0.77;;;;;;;;;;7301530;19;141096;-76
2023/09/18 05:50:07;;;;;;;2.25;0.90;;;;;;;;;;7303880;19;140464;-76
2023/09/18 05:52:34;;;;;;;2.40;0.77;;;;;;;;;;7303395;19;140739;-76
2023/09/18 05:55:04;;;;;;;1.63;0.80;;;;;;;;;;7302797;19;142089;-76
2023/09/18 05:57:32;;;;;;;1.80;0.60;;;;;;;;;;7302086;19;142608;-74
2023/09/18 05:59:59;;;;;;;2.10;0.60;;;;;;;;;;7302204;19;140901;-76
2023/09/18 06:02:26;;;;;;;2.05;0.90;;;;;;;;;;7301319;19;140679;-76
2023/09/18 06:04:57;;;;;;;1.45;0.70;;;;;;;;;;7302108;19;141307;-75
2023/09/18 06:07:25;;;;;;;1.80;0.68;;;;;;;;;;7302600;19;143004;-76
2023/09/18 06:09:52;;;;;;;1.60;0.60;;;;;;;;;;7302612;19;140704;-76
2023/09/18 06:12:19;;;;;;;2.17;0.70;;;;;;;;;;7301435;19;141504;-77
2023/09/18 06:14:48;;;;;;;1.10;0.70;;;;;;;;;;7298754;19;142415;-76
2023/09/18 06:17:15;;;;;;;1.50;0.63;;;;;;;;;;7300603;19;140703;-77
2023/09/18 06:19:45;;;;;;;0.90;0.70;;;;;;;;;;7302248;19;140619;-75
2023/09/18 06:22:13;;;;;;;1.00;0.50;;;;;;;;;;7302167;19;140712;-77
2023/09/18 06:24:40;;;;;;;0.82;0.50;;;;;;;;;;7301598;19;141543;-76
2023/09/18 06:27:07;;;;;;;1.70;0.68;;;;;;;;;;7301302;19;142142;-76
2023/09/18 06:29:35;;;;;;;1.33;0.50;;;;;;;;;;7301540;19;140342;-76
2023/09/18 06:32:03;;;;;;;1.13;0.70;;;;;;;;;;7301232;19;140693;-76
2023/09/18 06:34:30;;;;;;;1.40;0.60;;;;;;;;;;7301450;19;142066;-76
2023/09/18 06:36:57;;;;;;;2.40;0.75;;;;;;;;;;7300619;19;142809;-75
2023/09/18 06:39:25;;;;;;;1.40;0.60;;;;;;;;;;7302483;19;140733;-75
2023/09/18 06:41:52;;;;;;;1.48;0.52;;;;;;;;;;7301515;19;140336;-77
2023/09/18 06:44:21;;;;;;;1.25;0.60;;;;;;;;;;7300893;19;140693;-78
2023/09/18 06:46:48;;;;;;;1.15;0.60;;;;;;;;;;7299324;19;141915;-78
2023/09/18 06:49:15;;;;;;;1.10;0.60;;;;;;;;;;7301251;19;140693;-76
2023/09/18 06:51:43;;;;;;;1.65;0.70;;;;;;;;;;7300976;19;140516;-76
2023/09/18 06:54:10;;;;;;;0.95;0.60;;;;;;;;;;7300900;19;141371;-76
2023/09/18 06:56:37;;;;;;;1.53;0.60;;;;;;;;;;7301436;19;141608;-76
2023/09/18 06:59:04;;;;;;;0.93;0.52;;;;;;;;;;7301214;19;140587;-76
2023/09/18 07:01:32;;;;;;;1.20;0.57;;;;;;;;;;7300836;19;140628;-74
2023/09/18 07:04:00;;;;;;;1.10;0.55;;;;;;;;;;7298784;19;142358;-75
2023/09/18 07:06:27;;;;;;;1.70;0.80;;;;;;;;;;7298323;19;141839;-74
2023/09/18 07:08:54;;;;;;;0.90;0.60;;;;;;;;;;7300906;19;140697;-76
2023/09/18 07:11:22;;;;;;;1.58;0.70;;;;;;;;;;7300071;19;140449;-76
2023/09/18 07:13:52;;;;;;;0.73;0.55;;;;;;;;;;7299785;19;140979;-76
2023/09/18 07:16:19;;;;;;;0.82;0.60;;;;;;;;;;7298090;19;142340;-78
2023/09/18 07:18:46;;;;;;;0.90;0.60;;;;;;;;;;7296824;19;140818;-77
2023/09/18 07:21:13;;;;;;;1.20;0.60;;;;;;;;;;7300362;19;140593;-77
2023/09/18 07:23:40;;;;;;;1.10;0.57;;;;;;;;;;7299997;19;141337;-78
2023/09/18 07:26:08;;;;;;;0.90;0.80;;;;;;;;;;7298356;19;142012;-78
2023/09/18 07:28:35;;;;;;;1.02;0.60;;;;;;;;;;7299102;19;140943;-77
2023/09/18 07:31:09;;;;;;;0.77;0.60;;;;;;;;;;7297683;19;140927;-77
2023/09/18 07:33:36;;;;;;;0.70;0.60;;;;;;;;;;7297966;19;141396;-78
2023/09/18 07:36:03;;;;;;;1.10;0.60;;;;;;;;;;7298825;19;142882;-77
2023/09/18 07:38:30;;;;;;;1.00;0.60;;;;;;;;;;7300303;19;140590;-77
2023/09/18 07:40:58;;;;;;;0.80;0.60;;;;;;;;;;7298812;19;140945;-78
2023/09/18 07:43:25;;;;;;;0.52;0.40;;;;;;;;;;7299203;19;141072;-78
2023/09/18 07:45:53;;;;;;;0.82;0.50;;;;;;;;;;7299787;19;143723;-78
2023/09/18 07:48:22;;;;;;;0.82;0.60;;;;;;;;;;7297594;19;140531;-78
2023/09/18 07:50:50;;;;;;;0.50;0.50;;;;;;;;;;7297085;19;140821;-76
2023/09/18 07:53:18;;;;;;;0.70;0.50;;;;;;;;;;7298248;19;141622;-78
2023/09/18 07:55:47;;;;;;;0.80;0.50;;;;;;;;;;7296910;19;141837;-76
2023/09/18 07:58:14;;;;;;;0.50;0.40;;;;;;;;;;7303487;19;141205;-80
2023/09/18 08:00:53;;;;;;;2.10;1.05;;;;;;;;;;7303130;19;142007;-79
2023/09/18 08:03:22;;;;;;;1.33;0.60;;;;;;;;;;7305124;19;140521;-80
2023/09/18 08:05:50;;;;;;;0.90;0.50;;;;;;;;;;7304717;19;141843;-80
2023/09/18 08:11:18;;;;;;;0.90;0.60;;;;;;;;;;7311022;19;141881;-81
2023/09/18 08:14:08;;;;;;;0.73;0.53;;;;;;;;;;7310434;19;140902;-83
2023/09/18 08:17:17;;;;;;;1.10;0.50;;;;;;;;;;7304130;19;141379;-82
2023/09/18 08:23:32;;;;;;;0.60;0.40;;;;;;;;;;7299750;19;140846;-78
2023/09/18 08:26:01;;;;;;;0.90;0.50;;;;;;;;;;7300935;19;140935;-76
2023/09/18 08:28:28;;;;;;;0.97;0.50;;;;;;;;;;7296873;19;143201;-78
2023/09/18 08:30:55;;;;;;;0.60;0.55;;;;;;;;;;7295794;19;140750;-76
2023/09/18 08:33:23;;;;;;;0.50;0.43;;;;;;;;;;7297860;19;140440;-77
2023/09/18 08:35:54;;;;;;;0.52;0.40;;;;;;;;;;7297085;19;142727;-79
2023/09/18 08:38:23;;;;;;;0.70;0.50;;;;;;;;;;7296280;19;141597;-76
2023/09/18 08:40:53;;;;;;;0.60;0.40;;;;;;;;;;7298585;19;140969;-74
2023/09/18 08:43:21;;;;;;;0.63;0.50;;;;;;;;;;7296147;19;140731;-75
2023/09/18 08:45:49;;;;;;;1.05;0.40;;;;;;;;;;7296990;19;140898;-76
2023/09/18 08:48:17;;;;;;;0.50;0.43;;;;;;;;;;7295476;19;140778;-74
2023/09/18 08:50:45;;;;;;;1.65;0.50;;;;;;;;;;7295938;19;141532;-75
2023/09/18 08:53:12;;;;;;;1.13;0.50;;;;;;;;;;7297916;19;140618;-75
2023/09/18 08:55:42;;;;;;;2.78;0.70;;;;;;;;;;7296315;19;141567;-77
2023/09/18 08:58:10;;;;;;;1.13;0.52;;;;;;;;;;7294514;19;141193;-76
2023/09/18 09:00:37;;;;;;;1.75;0.60;;;;;;;;;;7295923;19;140822;-76
2023/09/18 09:03:05;;;;;;;1.60;0.50;;;;;;;;;;7296065;19;140574;-75
2023/09/18 09:05:32;;;;;;;1.60;0.60;;;;;;;;;;7296726;19;140944;-76
2023/09/18 09:08:01;;;;;;;2.03;0.65;;;;;;;;;;7296470;19;141206;-75
2023/09/18 09:10:29;;;;;;;2.20;0.70;;;;;;;;;;7300726;19;142475;-76
2023/09/18 09:12:57;;;;;;;1.73;0.60;;;;;;;;;;7303396;19;142471;-74
2023/09/18 09:15:44;;;;;;;1.75;0.60;;;;;;;;;;7303802;19;140880;-75
2023/09/18 09:18:12;;;;;;;2.45;0.70;;;;;;;;;;7300615;19;142138;-77
2023/09/18 09:20:41;;;;;;;2.53;0.60;;;;;;;;;;7304485;19;140446;-76
2023/09/18 09:23:13;;;;;;;3.40;0.70;;;;;;;;;;7302519;19;140768;-78
2023/09/18 09:25:43;;;;;;;1.52;0.60;;;;;;;;;;7303348;19;140728;-75
2023/09/18 09:28:12;;;;;;;2.73;0.63;;;;;;;;;;7303805;19;142485;-76
2023/09/18 09:30:39;;;;;;;2.90;0.70;;;;;;;;;;7303164;19;140579;-75
2023/09/18 09:33:09;;;;;;;3.17;0.80;;;;;;;;;;7301685;19;143312;-75
2023/09/18 09:35:36;;;;;;;1.98;0.70;;;;;;;;;;7303459;19;141312;-75
2023/09/18 09:38:08;;;;;;;2.30;0.70;;;;;;;;;;7303516;19;141514;-75
2023/09/18 09:40:38;;;;;;;1.70;0.60;;;;;;;;;;7303212;19;141004;-75
2023/09/18 09:43:07;;;;;;;1.97;0.60;;;;;;;;;;7303499;19;140824;-75
2023/09/18 09:45:37;;;;;;;2.27;0.80;;;;;;;;;;7303018;19;142114;-75
2023/09/18 09:48:05;;;;;;;2.33;0.60;;;;;;;;;;7301941;19;141355;-75
2023/09/18 09:50:44;;;;;;;1.50;0.57;;;;;;;;;;7303086;19;140539;-75
2023/09/18 09:53:12;;;;;;;2.77;0.80;;;;;;;;;;7303218;19;140704;-75
2023/09/18 09:55:40;;;;;;;1.90;0.77;;;;;;;;;;7302524;19;140612;-75
2023/09/18 09:58:08;;;;;;;1.10;0.60;;;;;;;;;;7302806;19;142883;-74
2023/09/18 10:00:43;;;;;;;2.30;0.73;;;;;;;;;;7302366;19;140777;-75
2023/09/18 10:03:11;;;;;;;1.67;0.65;;;;;;;;;;7302407;19;140961;-74
2023/09/18 10:05:43;;;;;;;2.80;0.80;;;;;;;;;;7300795;19;141417;-75
2023/09/18 10:08:20;;;;;;;1.00;0.60;;;;;;;;;;7302240;19;142468;-74
2023/09/18 10:10:49;;;;;;;1.65;0.70;;;;;;;;;;7302900;19;140759;-75
2023/09/18 10:13:19;;;;;;;2.95;0.75;;;;;;;;;;7301841;19;140751;-77
2023/09/18 10:15:48;;;;;;;1.10;0.60;;;;;;;;;;7300305;19;141421;-75
2023/09/18 10:18:52;;;;;;;2.07;0.70;;;;;;;;;;7299097;19;142157;-79
2023/09/18 10:21:41;;;;;;;1.40;0.60;;;;;;;;;;7299046;19;141026;-75
2023/09/18 10:24:15;;;;;;;1.77;0.80;;;;;;;;;;7301743;19;140771;-75
2023/09/18 10:27:14;;;;;;;3.13;0.80;;;;;;;;;;7299822;19;141360;-75
2023/09/18 10:29:41;;;;;;;2.63;0.73;;;;;;;;;;7298465;19;142038;-75
2023/09/18 10:32:09;;;;;;;1.55;0.70;;;;;;;;;;7301228;19;140502;-75
2023/09/18 10:34:36;;;;;;;1.98;0.80;;;;;;;;;;7301585;19;140531;-76
2023/09/18 10:37:06;;;;;;;1.20;0.60;;;;;;;;;;7298885;19;142741;-76
2023/09/18 10:39:39;;;;;;;2.53;0.80;;;;;;;;;;7300933;19;142622;-76
2023/09/18 10:42:09;;;;;;;1.55;0.80;;;;;;;;;;7301906;19;140693;-75
2023/09/18 10:44:39;;;;;;;1.88;0.80;;;;;;;;;;7301730;19;140746;-75
2023/09/18 10:47:20;;;;;;;1.73;0.70;;;;;;;;;;7299403;19;142107;-75
2023/09/18 10:49:51;;;;;;;1.58;0.80;;;;;;;;;;7299148;19;141010;-78
2023/09/18 10:52:18;;;;;;;1.85;0.88;;;;;;;;;;7301915;19;140798;-74
2023/09/18 10:54:46;;;;;;;1.75;0.90;;;;;;;;;;7298351;19;141157;-74
2023/09/18 10:57:13;;;;;;;1.50;0.80;;;;;;;;;;7299158;19;140660;-74
2023/09/18 10:59:44;;;;;;;2.13;0.70;;;;;;;;;;7300610;19;142390;-74
2023/09/18 11:02:14;;;;;;;1.83;0.70;;;;;;;;;;7299904;19;140897;-74
2023/09/18 11:04:41;;;;;;;1.47;0.80;;;;;;;;;;7300118;19;140682;-74
2023/09/18 11:07:09;;;;;;;2.17;0.90;;;;;;;;;;7300767;19;140930;-75
2023/09/18 11:09:43;;;;;;;1.10;0.60;;;;;;;;;;7301125;19;143455;-74
2023/09/18 11:12:11;;;;;;;1.17;0.60;;;;;;;;;;7298588;19;141810;-74
2023/09/18 11:14:45;;;;;;;1.08;0.68;;;;;;;;;;7300823;19;140528;-73
2023/09/18 11:17:35;;;;;;;1.35;0.70;;;;;;;;;;7300100;19;141755;-73
2023/09/18 11:20:19;;;;;;;1.35;0.70;;;;;;;;;;7300245;19;141861;-75
2023/09/18 11:22:57;;;;;;;1.38;0.63;;;;;;;;;;7298506;19;140878;-75
2023/09/18 11:25:34;;;;;;;1.00;0.65;;;;;;;;;;7295652;19;141603;-79
2023/09/18 11:28:19;;;;;;;1.23;0.90;;;;;;;;;;7301382;19;140947;-90
2023/09/18 11:30:50;;;;;;;1.30;0.70;;;;;;;;;;7298187;19;141910;-75
2023/09/18 11:33:29;;;;;;;1.47;0.60;;;;;;;;;;7298421;19;140832;-74
2023/09/18 11:35:56;;;;;;;1.37;0.70;;;;;;;;;;7300274;19;141387;-75
2023/09/18 11:38:24;;;;;;;0.90;0.60;;;;;;;;;;7297350;19;140963;-77
2023/09/18 11:40:51;;;;;;;1.08;0.60;;;;;;;;;;7295788;19;142408;-75
2023/09/18 11:43:25;;;;;;;1.20;0.70;;;;;;;;;;7299250;19;140788;-75
2023/09/18 11:45:54;;;;;;;0.60;0.50;;;;;;;;;;7299228;19;140596;-75
2023/09/18 11:48:24;;;;;;;0.60;0.50;;;;;;;;;;7296390;19;141380;-75
2023/09/18 11:50:54;;;;;;;1.42;0.75;;;;;;;;;;7297570;19;142317;-73
2023/09/18 11:53:23;;;;;;;0.93;0.60;;;;;;;;;;7297651;19;141075;-75
2023/09/18 11:55:52;;;;;;;0.93;0.60;;;;;;;;;;7299018;19;140799;-75
2023/09/18 11:58:23;;;;;;;1.10;0.70;;;;;;;;;;7296630;19;141267;-76
2023/09/18 12:00:54;;;;;;;1.20;0.70;;;;;;;;;;7296874;19;141585;-77
2023/09/18 12:03:26;;;;;;;1.23;0.52;;;;;;;;;;7296105;19;141639;-75
2023/09/18 12:05:56;;;;;;;1.20;0.60;;;;;;;;;;7297377;19;140635;-75
2023/09/18 12:08:29;;;;;;;1.10;0.70;;;;;;;;;;7295743;19;140508;-75
2023/09/18 12:10:57;;;;;;;0.90;0.60;;;;;;;;;;7296747;19;142854;-74
2023/09/18 12:13:25;;;;;;;1.10;0.60;;;;;;;;;;7296361;19;141403;-75
2023/09/18 12:16:01;;;;;;;1.07;0.80;;;;;;;;;;7299101;19;140557;-75
2023/09/18 12:18:34;;;;;;;0.60;0.60;;;;;;;;;;7296847;19;142216;-76
2023/09/18 12:21:30;;;;;;;0.90;0.47;;;;;;;;;;7297078;19;140863;-77
2023/09/18 12:24:30;;;;;;;0.82;0.65;;;;;;;;;;7294721;19;140734;-77
2023/09/18 12:26:58;;;;;;;1.27;0.68;;;;;;;;;;7295473;19;141007;-77
2023/09/18 12:29:25;;;;;;;0.82;0.60;;;;;;;;;;7294088;19;140651;-77
2023/09/18 12:31:52;;;;;;;1.30;0.70;;;;;;;;;;7294606;19;141635;-78
2023/09/18 12:34:23;;;;;;;0.57;0.57;;;;;;;;;;7293386;19;140770;-75
2023/09/18 12:36:54;;;;;;;0.88;0.50;;;;;;;;;;7294772;19;140859;-76
2023/09/18 12:39:22;;;;;;;0.90;0.60;;;;;;;;;;7294331;19;142485;-75
2023/09/18 12:41:54;;;;;;;0.93;0.60;;;;;;;;;;7292112;19;141111;-76
2023/09/18 12:44:23;;;;;;;1.30;0.70;;;;;;;;;;7296069;19;140801;-76
2023/09/18 12:46:52;;;;;;;0.87;0.60;;;;;;;;;;7301410;19;140798;-76
2023/09/18 12:49:28;;;;;;;0.73;0.60;;;;;;;;;;7300414;19;141041;-79
2023/09/18 12:52:00;;;;;;;0.80;0.60;;;;;;;;;;7301329;19;140944;-76
2023/09/18 12:54:42;;;;;;;0.65;0.60;;;;;;;;;;7301753;19;140645;-76
2023/09/18 12:57:10;;;;;;;0.80;0.60;;;;;;;;;;7300789;19;140505;-77
2023/09/18 12:59:37;;;;;;;1.13;0.60;;;;;;;;;;7300882;19;141131;-76
2023/09/18 13:02:05;;;;;;;0.80;0.60;;;;;;;;;;7301236;19;141069;-76
2023/09/18 13:04:39;;;;;;;0.60;0.60;;;;;;;;;;7300517;19;140726;-76
2023/09/18 13:07:12;;;;;;;0.60;0.60;;;;;;;;;;7302084;19;141600;-75
2023/09/18 13:09:39;;;;;;;0.80;0.65;;;;;;;;;;7300724;19;141270;-75
2023/09/18 13:12:07;;;;;;;1.03;0.67;;;;;;;;;;7300815;19;142617;-75
2023/09/18 13:14:53;;;;;;;0.70;0.60;;;;;;;;;;7301393;19;140548;-76
2023/09/18 13:17:22;;;;;;;1.42;0.65;;;;;;;;;;7301045;19;140784;-76
2023/09/18 13:19:49;;;;;;;0.63;0.50;;;;;;;;;;7302789;19;141204;-75
2023/09/18 13:22:39;;;;;;;0.60;0.60;;;;;;;;;;7302801;19;142205;-75
2023/09/18 13:25:10;;;;;;;0.50;0.50;;;;;;;;;;7302811;19;140872;-76
2023/09/18 13:27:38;;;;;;;0.70;0.60;;;;;;;;;;7301937;19;140510;-76
2023/09/18 13:30:06;;;;;;;0.80;0.60;;;;;;;;;;7303344;19;140962;-76
2023/09/18 13:32:35;;;;;;;1.00;0.60;;;;;;;;;;7303460;19;140859;-76
2023/09/18 13:35:06;;;;;;;0.60;0.60;;;;;;;;;;7301802;19;140691;-76
2023/09/18 13:37:34;;;;;;;0.65;0.60;;;;;;;;;;7303981;19;140669;-76
2023/09/18 13:40:07;;;;;;;0.98;0.68;;;;;;;;;;7303679;19;142319;-76
2023/09/18 13:42:35;;;;;;;1.20;0.70;;;;;;;;;;7303286;19;142123;-76
2023/09/18 13:45:08;;;;;;;1.23;0.70;;;;;;;;;;7303422;19;140693;-76
2023/09/18 13:47:36;;;;;;;0.98;0.70;;;;;;;;;;7303860;19;140624;-76
2023/09/18 13:50:04;;;;;;;0.88;0.60;;;;;;;;;;7302813;19;141016;-78
2023/09/18 13:52:32;;;;;;;0.85;0.60;;;;;;;;;;7302733;19;141942;-76
2023/09/18 13:55:00;;;;;;;1.25;0.63;;;;;;;;;;7303506;19;140444;-76
2023/09/18 13:57:27;;;;;;;0.80;0.70;;;;;;;;;;7299227;19;140645;-76
2023/09/18 13:59:54;;;;;;;1.30;0.70;;;;;;;;;;7300903;19;141464;-75
2023/09/18 14:02:22;;;;;;;1.52;0.80;;;;;;;;;;7302485;19;142486;-77
2023/09/18 14:04:50;;;;;;;2.13;0.80;;;;;;;;;;7301021;19;140741;-76
2023/09/18 14:07:17;;;;;;;1.38;0.70;;;;;;;;;;7302344;19;140767;-76
2023/09/18 14:09:46;;;;;;;1.10;0.60;;;;;;;;;;7302821;19;140970;-74
2023/09/18 14:12:14;;;;;;;1.20;0.70;;;;;;;;;;7301391;19;142936;-76
2023/09/18 14:14:42;;;;;;;2.20;0.73;;;;;;;;;;7302398;19;140909;-74
2023/09/18 14:17:10;;;;;;;0.95;0.60;;;;;;;;;;7303045;19;140610;-74
2023/09/18 14:19:40;;;;;;;1.70;0.77;;;;;;;;;;7301219;19;141314;-75
2023/09/18 14:22:09;;;;;;;1.45;0.60;;;;;;;;;;7302421;19;141425;-74
2023/09/18 14:24:36;;;;;;;1.00;0.70;;;;;;;;;;7302493;19;140765;-74
2023/09/18 14:27:04;;;;;;;1.50;0.80;;;;;;;;;;7302086;19;140631;-75
2023/09/18 14:29:31;;;;;;;0.93;0.70;;;;;;;;;;7301496;19;140681;-75
2023/09/18 14:31:59;;;;;;;0.87;0.67;;;;;;;;;;7301771;19;141781;-75
2023/09/18 14:34:27;;;;;;;1.30;0.80;;;;;;;;;;7301254;19;140612;-74
2023/09/18 14:36:54;;;;;;;0.70;0.60;;;;;;;;;;7301941;19;140625;-75
2023/09/18 14:39:21;;;;;;;1.13;0.77;;;;;;;;;;7301433;19;141072;-75
2023/09/18 14:41:49;;;;;;;1.35;0.80;;;;;;;;;;7300895;19;142886;-74
2023/09/18 14:44:16;;;;;;;1.65;0.70;;;;;;;;;;7301235;19;140843;-74
2023/09/18 14:46:45;;;;;;;1.55;0.75;;;;;;;;;;7301719;19;140563;-75
2023/09/18 14:49:12;;;;;;;1.25;0.68;;;;;;;;;;7300765;19;141573;-74
2023/09/18 14:51:39;;;;;;;1.20;0.80;;;;;;;;;;7298884;19;142686;-75